Cadillac, Michigan
Current Conditions -  °F | °C
As of 7:15 AM on Saturday 25 Oct 2014 (Local Time) from KCAD Reporting Station
Overcast Overcast  
Wind Chill: 53°   Ceiling: 800
Heat Index: 53°   Visibility: 7mi
Dew Point: 51°   Wind: 10mph
Humidity: 95%   Direction: 260°W
Pressure: 29.77"   Gusts: 20mph
Location:  44.26°N, 85.4°W
Report Text: KCAD 251115Z AUTO 26009G17KT 7SM OVC008 11/11 A2977 RMK AO2 T01150108
Loading
Personal Weather Stations






























Interactive Weather Map New forecast layout! Learn more

10-Day Weather Forecast

Advertisements
Track Severe Weather on mobile